Time;durP1;ratioP1;P1;durP2;ratioP2;P2;SDS_P1;SDS_P2;PMS_P1;PMS_P2;Temp;Humidity;BMP_temperature;BMP_pressure;BME280_temperature;BME280_humidity;BME280_pressure;Samples;Min_cycle;Max_cycle;Signal;HPM_P1;HPM_P2
2023/09/30 00:01:40;;;;;;;4.95;3.83;;;13.60;21.70;;;;;;5168570;28;20037;-68
2023/09/30 00:04:15;;;;;;;7.18;3.80;;;13.70;8.40;;;;;;5189780;28;20611;-68
2023/09/30 00:06:49;;;;;;;6.10;3.90;;;13.80;1.00;;;;;;5156747;28;20046;-69
2023/09/30 00:09:23;;;;;;;6.13;3.97;;;13.90;1.00;;;;;;5157751;28;20041;-67
2023/09/30 00:11:57;;;;;;;4.38;3.97;;;14.00;1.00;;;;;;5192568;28;20052;-69
2023/09/30 00:14:30;;;;;;;4.90;3.58;;;14.00;1.00;;;;;;5193973;28;20033;-68
2023/09/30 00:17:02;;;;;;;5.35;3.95;;;14.10;1.00;;;;;;5162233;28;20037;-68
2023/09/30 00:19:33;;;;;;;5.60;3.85;;;14.10;1.00;;;;;;5186296;28;20028;-68
2023/09/30 00:22:06;;;;;;;5.32;3.92;;;14.10;1.00;;;;;;5178143;28;20045;-68
2023/09/30 00:24:38;;;;;;;6.25;3.95;;;14.10;1.00;;;;;;5194736;28;20021;-68
2023/09/30 00:27:12;;;;;;;6.95;4.03;;;14.10;1.00;;;;;;5158211;28;20394;-68
2023/09/30 00:29:49;;;;;;;5.43;4.22;;;14.00;1.00;;;;;;5172748;28;20041;-68
2023/09/30 00:32:26;;;;;;;7.38;3.35;;;14.00;1.00;;;;;;5172563;28;20051;-68
2023/09/30 00:34:58;;;;;;;5.43;3.42;;;14.00;1.00;;;;;;5147766;28;20053;-68
2023/09/30 00:37:29;;;;;;;5.60;3.75;;;14.00;1.00;;;;;;5164294;28;20121;-68
2023/09/30 00:40:01;;;;;;;5.57;3.65;;;14.10;1.00;;;;;;5183454;28;20317;-68
2023/09/30 00:42:39;;;;;;;4.03;2.95;;;14.20;1.00;;;;;;5183468;28;20039;-70
2023/09/30 00:45:11;;;;;;;4.18;3.15;;;14.20;1.00;;;;;;5197997;28;20056;-68
2023/09/30 00:47:46;;;;;;;6.38;3.55;;;14.20;1.00;;;;;;5182662;28;20403;-69
2023/09/30 00:50:26;;;;;;;5.05;3.83;;;14.20;1.00;;;;;;5180552;28;20075;-67
2023/09/30 00:53:04;;;;;;;4.95;2.92;;;14.10;1.00;;;;;;5162116;28;20038;-68
2023/09/30 00:55:36;;;;;;;4.35;3.13;;;14.10;1.00;;;;;;5145451;28;20049;-68
2023/09/30 00:58:08;;;;;;;3.35;2.72;;;14.00;30.90;;;;;;5194181;28;20107;-69
2023/09/30 01:03:27;;;;;;;4.68;3.50;;;14.20;93.20;;;;;;5181574;28;20053;-91
2023/09/30 01:06:00;;;;;;;4.47;3.40;;;14.20;31.60;;;;;;5166210;28;20056;-91
2023/09/30 01:08:42;;;;;;;4.38;2.97;;;14.30;43.80;;;;;;5134518;28;20034;-92
2023/09/30 01:11:22;;;;;;;3.95;3.28;;;14.30;11.10;;;;;;5150647;28;20038;-91
2023/09/30 01:14:00;;;;;;;4.40;3.42;;;14.30;1.00;;;;;;5152710;28;20065;-91
2023/09/30 01:16:31;;;;;;;4.53;3.33;;;14.40;1.00;;;;;;5169096;23;20517;-76
2023/09/30 01:19:03;;;;;;;7.18;4.30;;;14.30;1.00;;;;;;5173738;28;20080;-73
2023/09/30 01:21:37;;;;;;;3.50;2.97;;;14.30;7.10;;;;;;5173735;28;20042;-73
2023/09/30 01:24:14;;;;;;;4.82;3.70;;;14.30;1.40;;;;;;5140215;28;20046;-73
2023/09/30 01:26:46;;;;;;;5.18;3.63;;;14.40;8.20;;;;;;5137382;28;20035;-75
2023/09/30 01:29:20;;;;;;;3.97;2.88;;;14.30;1.00;;;;;;5121122;28;20056;-75
2023/09/30 01:31:57;;;;;;;3.97;2.80;;;14.40;21.50;;;;;;5150065;28;20046;-75
2023/09/30 01:34:30;;;;;;;3.78;3.08;;;14.40;38.50;;;;;;5136992;28;20043;-75
2023/09/30 01:37:02;;;;;;;3.83;3.43;;;14.50;51.90;;;;;;5129257;28;20069;-75
2023/09/30 01:39:33;;;;;;;4.07;3.30;;;14.60;20.70;;;;;;5157625;28;20050;-74
2023/09/30 01:42:05;;;;;;;4.85;3.63;;;14.70;1.00;;;;;;5157196;28;20054;-74
2023/09/30 01:44:41;;;;;;;4.22;2.63;;;14.70;1.00;;;;;;5141166;28;20303;-74
2023/09/30 01:47:15;;;;;;;5.35;3.40;;;14.80;1.00;;;;;;5139541;28;20211;-75
2023/09/30 01:49:52;;;;;;;4.07;3.47;;;14.80;1.00;;;;;;5157974;28;20070;-75
2023/09/30 01:52:23;;;;;;;3.15;2.85;;;14.80;1.00;;;;;;5154210;28;20506;-75
2023/09/30 01:54:58;;;;;;;4.30;3.03;;;14.90;1.00;;;;;;5139845;28;20217;-73
2023/09/30 01:57:32;;;;;;;3.30;2.80;;;14.90;1.00;;;;;;5185317;28;20057;-74
2023/09/30 02:00:08;;;;;;;7.32;3.60;;;15.00;1.00;;;;;;5134204;28;20046;-75
2023/09/30 02:02:43;;;;;;;5.00;3.70;;;14.90;1.00;;;;;;5145730;28;20056;-75
2023/09/30 02:05:14;;;;;;;4.15;3.15;;;14.90;1.00;;;;;;5122798;28;20083;-75
2023/09/30 02:07:48;;;;;;;4.75;3.40;;;14.90;1.00;;;;;;5172770;28;20038;-75
2023/09/30 02:10:22;;;;;;;;;;;14.90;1.00;;;;;;5141730;28;20048;-75
2023/09/30 02:12:56;;;;;;;4.57;3.28;;;15.00;1.00;;;;;;5140675;28;19909;-74
2023/09/30 02:15:31;;;;;;;4.53;3.40;;;14.90;1.00;;;;;;5150642;28;20055;-73
2023/09/30 02:18:03;;;;;;;5.15;3.45;;;14.90;1.00;;;;;;5130774;28;20046;-74
2023/09/30 02:20:40;;;;;;;3.28;2.70;;;15.00;1.00;;;;;;5156797;28;20038;-75
2023/09/30 02:23:12;;;;;;;3.30;2.65;;;15.10;1.00;;;;;;5141454;28;20038;-74
2023/09/30 02:25:50;;;;;;;5.90;3.10;;;15.20;1.00;;;;;;5123660;28;20049;-75
2023/09/30 02:28:22;;;;;;;4.10;3.10;;;15.30;1.00;;;;;;5156187;28;20032;-74
2023/09/30 02:30:53;;;;;;;4.75;3.00;;;15.40;1.00;;;;;;5187335;28;20034;-74
2023/09/30 02:33:29;;;;;;;4.90;2.97;;;15.50;1.00;;;;;;5158276;28;20064;-74
2023/09/30 02:36:05;;;;;;;3.40;2.60;;;16.00;1.00;;;;;;5178548;28;20080;-75
2023/09/30 02:38:38;;;;;;;3.25;2.45;;;16.40;1.00;;;;;;5153220;28;20045;-74
2023/09/30 02:41:18;;;;;;;5.05;3.10;;;17.50;1.00;;;;;;5155148;28;20128;-74
2023/09/30 02:43:49;;;;;;;3.35;2.40;;;18.40;99.90;;;;;;5156662;28;20391;-74
2023/09/30 02:46:23;;;;;;;3.00;2.30;;;19.00;99.90;;;;;;5154261;28;20038;-74
2023/09/30 02:49:00;;;;;;;4.35;2.55;;;19.60;29.80;;;;;;5155448;28;20038;-74
2023/09/30 02:51:34;;;;;;;2.97;2.58;;;19.90;1.00;;;;;;5138971;28;20114;-74
2023/09/30 02:54:06;;;;;;;4.40;2.70;;;19.90;1.00;;;;;;5149744;28;20493;-74
2023/09/30 02:56:40;;;;;;;4.13;2.65;;;20.10;1.00;;;;;;5134633;28;20050;-74
2023/09/30 02:59:12;;;;;;;3.53;2.58;;;20.20;1.00;;;;;;5169964;28;20046;-74
2023/09/30 03:01:50;;;;;;;2.72;2.47;;;20.20;1.00;;;;;;5154416;28;20038;-74
2023/09/30 03:04:25;;;;;;;3.05;2.45;;;20.10;1.00;;;;;;5155806;28;20223;-74
2023/09/30 03:06:57;;;;;;;3.58;2.92;;;20.10;1.00;;;;;;5156523;28;20046;-75
2023/09/30 03:09:35;;;;;;;4.47;2.75;;;20.10;1.00;;;;;;5113597;28;20114;-74
2023/09/30 03:12:09;;;;;;;3.60;2.55;;;20.10;1.00;;;;;;5156699;28;20503;-75
2023/09/30 03:14:45;;;;;;;2.90;2.35;;;20.10;1.00;;;;;;5156240;28;20173;-74
2023/09/30 03:17:19;;;;;;;3.95;2.60;;;20.10;1.00;;;;;;5154538;28;20076;-75
2023/09/30 03:19:59;;;;;;;3.60;2.60;;;20.00;1.00;;;;;;5156868;28;20047;-75
2023/09/30 03:22:35;;;;;;;4.00;3.40;;;20.00;1.00;;;;;;5124495;28;20057;-74
2023/09/30 03:25:11;;;;;;;4.68;2.92;;;20.00;1.00;;;;;;5156350;28;20090;-74
2023/09/30 03:27:51;;;;;;;6.70;2.60;;;20.10;1.00;;;;;;5141273;28;20061;-75
2023/09/30 03:30:25;;;;;;;4.38;2.47;;;20.10;1.00;;;;;;5166690;28;20046;-75
2023/09/30 03:32:59;;;;;;;3.70;2.05;;;20.10;1.00;;;;;;5140663;28;20337;-74
2023/09/30 03:35:36;;;;;;;4.20;2.70;;;20.10;1.00;;;;;;5156179;28;20034;-75
2023/09/30 03:38:12;;;;;;;3.13;2.30;;;20.10;1.00;;;;;;5140049;28;20243;-74
2023/09/30 03:40:47;;;;;;;3.53;2.75;;;20.10;1.00;;;;;;5157564;28;20071;-74
2023/09/30 03:43:23;;;;;;;3.22;2.40;;;20.10;1.00;;;;;;5138848;28;20046;-75
2023/09/30 03:45:57;;;;;;;3.63;2.80;;;20.10;1.00;;;;;;5149842;28;20046;-75
2023/09/30 03:48:29;;;;;;;;;;;20.10;7.00;;;;;;5170752;28;20270;-74
2023/09/30 03:51:17;;;;;;;4.20;2.65;;;20.10;78.60;;;;;;5189027;28;19913;-74
2023/09/30 03:53:51;;;;;;;4.65;3.38;;;20.10;99.90;;;;;;5143972;28;20380;-73
2023/09/30 03:56:25;;;;;;;;;;;20.00;99.90;;;;;;5127675;28;20042;-74
2023/09/30 03:58:56;;;;;;;5.22;3.00;;;20.00;99.90;;;;;;5177881;28;19929;-74
2023/09/30 04:01:31;;;;;;;4.45;2.90;;;19.90;99.90;;;;;;5151371;28;20037;-74
2023/09/30 04:04:02;;;;;;;5.47;3.20;;;19.90;99.90;;;;;;5140410;28;20053;-75
2023/09/30 04:06:38;;;;;;;6.95;3.80;;;19.90;1.00;;;;;;5159536;28;20342;-74
2023/09/30 04:09:15;;;;;;;7.60;4.05;;;19.80;1.00;;;;;;5141979;28;20053;-74
2023/09/30 04:11:47;;;;;;;7.85;4.28;;;19.70;1.00;;;;;;5159690;28;20035;-74
2023/09/30 04:14:19;;;;;;;10.00;4.22;;;19.70;1.00;;;;;;5142022;28;20046;-71
2023/09/30 04:16:56;;;;;;;7.03;3.78;;;19.60;1.00;;;;;;5157445;28;20357;-73
2023/09/30 04:19:33;;;;;;;7.60;3.78;;;19.60;1.00;;;;;;5136688;28;20043;-74
2023/09/30 04:22:16;;;;;;;8.48;4.28;;;19.50;1.00;;;;;;5155031;28;20051;-73
2023/09/30 04:24:54;;;;;;;8.65;4.47;;;19.50;1.00;;;;;;5153686;28;20061;-74
2023/09/30 04:27:28;;;;;;;11.82;4.85;;;19.40;1.00;;;;;;5156210;28;20038;-74
2023/09/30 04:30:08;;;;;;;10.15;4.55;;;19.40;1.00;;;;;;5139484;28;20560;-72
2023/09/30 04:32:45;;;;;;;11.70;4.90;;;19.40;1.00;;;;;;5139885;28;20049;-73
2023/09/30 04:35:19;;;;;;;11.30;4.93;;;19.40;1.00;;;;;;5159083;28;20364;-73
2023/09/30 04:37:51;;;;;;;10.90;5.22;;;19.40;1.00;;;;;;5135130;28;20052;-72
2023/09/30 04:40:27;;;;;;;14.07;5.57;;;19.30;1.00;;;;;;5158665;28;20066;-73
2023/09/30 04:42:59;;;;;;;10.13;5.13;;;19.20;1.00;;;;;;5159004;28;20040;-72
2023/09/30 04:45:41;;;;;;;10.50;5.57;;;19.10;1.00;;;;;;5124316;28;20131;-72
2023/09/30 04:48:16;;;;;;;11.25;4.93;;;18.80;1.00;;;;;;5148052;28;20046;-73
2023/09/30 04:50:52;;;;;;;11.45;6.18;;;18.60;1.10;;;;;;5158915;28;20072;-73
2023/09/30 04:53:26;;;;;;;11.48;5.80;;;18.60;1.00;;;;;;5141268;28;20508;-73
2023/09/30 04:56:02;;;;;;;9.70;5.10;;;18.60;1.00;;;;;;5155632;28;20050;-72
2023/09/30 04:58:35;;;;;;;13.07;5.13;;;18.60;1.00;;;;;;5158838;28;20030;-74
2023/09/30 05:01:12;;;;;;;19.50;5.77;;;18.80;1.00;;;;;;5137915;28;20022;-72
2023/09/30 05:03:49;;;;;;;12.48;5.45;;;18.80;1.00;;;;;;5158320;28;20383;-72
2023/09/30 05:06:22;;;;;;;11.15;5.80;;;18.90;1.00;;;;;;5127998;28;20054;-72
2023/09/30 05:08:56;;;;;;;16.02;5.35;;;19.00;1.00;;;;;;5159152;28;20035;-76
2023/09/30 05:11:27;;;;;;;11.13;5.20;;;19.00;1.00;;;;;;5170787;28;20049;-73
2023/09/30 05:14:05;;;;;;;10.50;5.30;;;19.00;1.00;;;;;;5141059;28;20059;-73
2023/09/30 05:16:43;;;;;;;13.40;5.40;;;19.00;1.00;;;;;;5123485;28;20052;-75
2023/09/30 05:19:20;;;;;;;12.07;5.47;;;19.00;1.00;;;;;;5140244;28;20049;-73
2023/09/30 05:21:52;;;;;;;12.00;5.57;;;19.00;1.00;;;;;;5153501;28;20044;-73
2023/09/30 05:24:27;;;;;;;11.85;4.72;;;19.10;1.00;;;;;;5158647;28;20498;-74
2023/09/30 05:26:58;;;;;;;;;;;19.10;1.00;;;;;;5142751;28;20057;-73
2023/09/30 05:29:34;;;;;;;12.85;5.85;;;19.00;1.00;;;;;;5175939;28;20369;-72
2023/09/30 05:32:08;;;;;;;12.95;4.88;;;19.00;1.00;;;;;;5190854;28;20056;-73
2023/09/30 05:34:43;;;;;;;14.55;5.30;;;19.00;1.00;;;;;;5160971;28;20204;-74
2023/09/30 05:37:21;;;;;;;16.80;6.10;;;19.00;1.00;;;;;;5158393;28;20339;-73
2023/09/30 05:39:53;;;;;;;11.27;5.68;;;19.00;1.00;;;;;;5161021;28;20040;-73
2023/09/30 05:42:30;;;;;;;11.82;5.63;;;19.00;1.00;;;;;;5150081;28;20437;-73
2023/09/30 05:45:06;;;;;;;10.88;4.68;;;19.00;1.00;;;;;;5175721;28;20472;-75
2023/09/30 05:47:42;;;;;;;15.32;6.40;;;19.00;1.00;;;;;;5141252;28;20076;-73
2023/09/30 05:50:16;;;;;;;12.60;5.25;;;19.00;1.00;;;;;;5139089;28;20049;-73
2023/09/30 05:52:54;;;;;;;12.20;4.70;;;19.00;1.00;;;;;;5139253;28;20045;-73
2023/09/30 05:55:29;;;;;;;15.00;5.47;;;19.10;1.00;;;;;;5139007;28;20054;-73
2023/09/30 05:58:03;;;;;;;13.70;5.47;;;19.10;1.00;;;;;;5147922;28;20056;-75
2023/09/30 06:00:40;;;;;;;13.32;5.20;;;19.10;1.00;;;;;;5171723;28;20046;-72
2023/09/30 06:03:12;;;;;;;14.90;5.68;;;19.10;1.00;;;;;;5126831;28;20049;-73
2023/09/30 06:05:44;;;;;;;11.50;4.82;;;19.00;1.00;;;;;;5158499;28;20035;-73
2023/09/30 06:08:18;;;;;;;11.02;4.97;;;19.00;1.00;;;;;;5160038;28;20534;-77
2023/09/30 06:10:54;;;;;;;15.10;5.45;;;19.10;1.00;;;;;;5142549;28;20040;-74
2023/09/30 06:13:31;;;;;;;14.27;5.50;;;19.10;1.00;;;;;;5158877;28;20036;-75
2023/09/30 06:16:06;;;;;;;11.13;4.90;;;19.10;1.00;;;;;;5186340;28;20247;-73
2023/09/30 06:18:38;;;;;;;11.82;4.72;;;19.20;1.00;;;;;;5153665;28;20038;-74
2023/09/30 06:21:24;;;;;;;12.32;4.93;;;19.10;1.00;;;;;;5159469;28;20042;-73
2023/09/30 06:23:59;;;;;;;13.07;4.85;;;19.20;1.00;;;;;;5158288;28;20040;-73
2023/09/30 06:26:30;;;;;;;;;;;19.20;1.00;;;;;;5158716;28;20496;-73
2023/09/30 06:29:06;;;;;;;12.85;4.97;;;19.20;1.00;;;;;;5142331;28;20306;-72
2023/09/30 06:31:38;;;;;;;14.55;5.20;;;19.20;1.00;;;;;;5137859;28;20030;-74
2023/09/30 06:34:12;;;;;;;14.40;5.50;;;19.10;1.00;;;;;;5145639;28;20046;-74
2023/09/30 06:36:47;;;;;;;11.75;4.68;;;19.20;1.00;;;;;;5154098;28;20053;-74
2023/09/30 06:39:20;;;;;;;11.82;5.32;;;19.20;1.00;;;;;;5145961;28;20026;-74
2023/09/30 06:41:54;;;;;;;13.38;4.80;;;19.10;1.00;;;;;;5138776;28;20228;-73
2023/09/30 06:44:31;;;;;;;14.38;4.82;;;19.10;1.00;;;;;;5123026;28;20043;-74
2023/09/30 06:47:02;;;;;;;13.27;5.30;;;19.10;1.00;;;;;;5137811;28;20061;-76
2023/09/30 06:49:39;;;;;;;13.45;5.35;;;19.00;1.00;;;;;;5138257;28;20219;-73
2023/09/30 06:52:13;;;;;;;12.52;5.50;;;19.00;1.00;;;;;;5128064;28;20333;-76
2023/09/30 06:54:44;;;;;;;11.73;4.63;;;19.10;1.00;;;;;;5143235;28;20049;-73
2023/09/30 06:57:16;;;;;;;12.60;6.03;;;19.10;1.00;;;;;;5156324;28;20042;-73
2023/09/30 06:59:53;;;;;;;11.95;4.93;;;19.20;1.00;;;;;;5156722;28;20034;-72
2023/09/30 07:02:26;;;;;;;12.98;5.63;;;19.20;1.00;;;;;;5146771;28;20072;-73
2023/09/30 07:05:05;;;;;;;14.70;5.13;;;19.40;1.00;;;;;;5140446;28;20480;-75
2023/09/30 07:07:43;;;;;;;12.93;5.70;;;19.40;1.00;;;;;;5159489;28;20026;-75
2023/09/30 07:10:19;;;;;;;14.95;4.95;;;19.60;1.00;;;;;;5155055;28;20030;-74
2023/09/30 07:12:54;;;;;;;11.25;4.47;;;19.70;1.00;;;;;;5174058;28;20034;-74
2023/09/30 07:15:29;;;;;;;14.82;5.95;;;19.90;1.00;;;;;;5152958;28;20052;-73
2023/09/30 07:18:00;;;;;;;;;;;19.90;1.00;;;;;;5159091;28;20038;-73
2023/09/30 07:20:37;;;;;;;11.90;4.63;;;20.00;1.00;;;;;;5165598;28;19918;-74
2023/09/30 07:23:09;;;;;;;9.40;4.68;;;20.20;1.00;;;;;;5157751;28;20030;-74
2023/09/30 07:25:44;;;;;;;9.98;4.57;;;20.30;1.00;;;;;;5151864;28;20615;-73
2023/09/30 07:28:20;;;;;;;10.55;4.30;;;20.30;1.00;;;;;;5162314;28;20026;-73
2023/09/30 07:30:55;;;;;;;12.88;5.57;;;20.30;1.00;;;;;;5128973;28;20053;-74
2023/09/30 07:33:26;;;;;;;12.07;4.60;;;20.60;99.90;;;;;;5146724;28;20041;-73
2023/09/30 07:36:00;;;;;;;13.13;4.60;;;20.60;99.90;;;;;;5133636;28;20053;-73
2023/09/30 07:38:32;;;;;;;11.00;4.55;;;20.90;99.90;;;;;;5152613;28;20038;-75
2023/09/30 07:41:06;;;;;;;11.52;4.80;;;20.90;99.90;;;;;;5154959;28;20034;-74
2023/09/30 07:43:39;;;;;;;13.43;4.85;;;20.90;99.90;;;;;;5149729;28;20045;-72
2023/09/30 07:46:10;;;;;;;11.32;4.93;;;21.00;99.90;;;;;;5143196;28;20050;-73
2023/09/30 07:48:42;;;;;;;14.05;4.75;;;21.10;99.90;;;;;;5177556;28;20038;-72
2023/09/30 07:51:15;;;;;;;12.05;5.07;;;21.50;99.90;;;;;;5162238;28;20022;-73
2023/09/30 07:53:52;;;;;;;15.57;4.55;;;21.50;99.90;;;;;;5160338;28;20057;-73
2023/09/30 07:56:23;;;;;;;11.88;5.05;;;21.20;99.90;;;;;;5145304;28;20041;-73
2023/09/30 07:58:57;;;;;;;12.73;5.07;;;21.10;99.90;;;;;;5160950;28;20054;-73
2023/09/30 08:01:37;;;;;;;12.45;5.13;;;21.00;99.90;;;;;;5151526;28;20033;-73
2023/09/30 08:04:08;;;;;;;16.55;4.43;;;21.10;99.90;;;;;;5173688;28;20048;-73
2023/09/30 08:06:45;;;;;;;16.45;4.70;;;21.20;99.90;;;;;;5155388;28;20076;-73
2023/09/30 08:09:19;;;;;;;9.32;3.78;;;21.10;99.90;;;;;;5176118;28;20048;-75
2023/09/30 08:11:53;;;;;;;14.43;4.60;;;20.80;99.90;;;;;;5191723;28;20038;-73
2023/09/30 08:14:25;;;;;;;9.73;4.32;;;20.90;99.90;;;;;;5170339;28;20545;-74
2023/09/30 08:16:57;;;;;;;10.18;3.92;;;20.60;99.90;;;;;;5185911;28;20053;-74
2023/09/30 08:19:34;;;;;;;11.25;4.78;;;20.70;99.90;;;;;;5188950;28;20050;-75
2023/09/30 08:22:10;;;;;;;12.43;4.82;;;20.70;99.90;;;;;;5154710;28;20034;-73
2023/09/30 08:24:44;;;;;;;11.43;4.50;;;20.70;99.90;;;;;;5150399;28;20064;-74
2023/09/30 08:27:16;;;;;;;12.55;4.85;;;20.80;99.90;;;;;;5177929;28;20397;-73
2023/09/30 08:29:53;;;;;;;12.43;5.25;;;20.90;99.90;;;;;;5175025;28;20373;-74
2023/09/30 08:32:25;;;;;;;13.82;4.80;;;20.80;99.90;;;;;;5190569;28;20026;-74
2023/09/30 08:35:04;;;;;;;12.77;4.40;;;21.00;99.90;;;;;;5170863;28;20054;-74
2023/09/30 08:37:39;;;;;;;11.57;5.22;;;20.80;99.90;;;;;;5164531;28;20050;-74
2023/09/30 08:40:11;;;;;;;12.40;4.60;;;20.80;99.90;;;;;;5174028;28;20030;-74
2023/09/30 08:42:43;;;;;;;13.25;4.85;;;20.90;99.90;;;;;;5158780;28;20061;-74
2023/09/30 08:45:24;;;;;;;10.52;4.38;;;20.80;99.90;;;;;;5153506;28;20048;-73
2023/09/30 08:48:00;;;;;;;10.80;4.32;;;20.80;99.90;;;;;;5169691;28;20038;-75
2023/09/30 08:50:41;;;;;;;13.00;4.97;;;21.00;99.90;;;;;;5157415;28;20034;-73
2023/09/30 08:53:14;;;;;;;12.65;5.80;;;21.20;99.90;;;;;;5168995;28;20042;-73
2023/09/30 08:55:54;;;;;;;16.53;4.30;;;21.40;99.90;;;;;;5155684;28;20034;-73
2023/09/30 08:58:29;;;;;;;10.88;4.18;;;21.40;99.90;;;;;;5172650;28;20039;-72
2023/09/30 09:01:03;;;;;;;11.77;5.03;;;22.00;99.90;;;;;;5183288;28;20056;-73
2023/09/30 09:03:37;;;;;;;11.50;5.10;;;22.30;99.90;;;;;;5145357;28;20042;-73
2023/09/30 09:06:09;;;;;;;;;;;21.90;99.90;;;;;;5157302;28;20034;-73
2023/09/30 09:08:42;;;;;;;13.10;4.63;;;21.70;99.90;;;;;;5156696;28;19917;-72
2023/09/30 09:11:14;;;;;;;10.02;4.00;;;21.60;99.90;;;;;;5190330;28;20334;-75
2023/09/30 09:14:00;;;;;;;11.30;5.05;;;21.70;99.90;;;;;;5189736;28;20034;-73
2023/09/30 09:16:32;;;;;;;11.20;4.30;;;21.90;99.90;;;;;;5156238;28;20045;-73
2023/09/30 09:19:21;;;;;;;8.93;3.92;;;22.00;99.90;;;;;;5180438;28;20041;-74
2023/09/30 09:22:00;;;;;;;13.35;4.88;;;22.20;99.90;;;;;;5187811;28;20032;-73
2023/09/30 09:24:42;;;;;;;8.25;4.05;;;22.20;99.90;;;;;;5189813;28;20036;-73
2023/09/30 09:27:17;;;;;;;9.27;4.13;;;22.30;99.90;;;;;;5155829;28;20030;-74
2023/09/30 09:29:48;;;;;;;7.63;3.85;;;22.00;99.90;;;;;;5157467;28;20030;-74
2023/09/30 09:32:28;;;;;;;12.95;4.85;;;22.20;99.90;;;;;;5155349;28;20042;-73
2023/09/30 09:35:03;;;;;;;11.05;4.82;;;22.30;99.90;;;;;;5152246;28;20573;-74
2023/09/30 09:37:34;;;;;;;7.75;3.92;;;22.10;99.90;;;;;;5143146;28;20041;-74
2023/09/30 09:40:07;;;;;;;9.40;4.18;;;22.10;99.90;;;;;;5143905;28;20034;-73
2023/09/30 09:42:41;;;;;;;11.65;3.78;;;22.40;99.90;;;;;;5127115;28;20041;-73
2023/09/30 09:45:13;;;;;;;12.43;4.28;;;22.50;99.90;;;;;;5142982;28;20046;-74
2023/09/30 09:47:51;;;;;;;12.90;3.90;;;22.40;99.90;;;;;;5156517;28;20042;-74
2023/09/30 09:50:26;;;;;;;7.35;3.20;;;22.30;99.90;;;;;;5187656;28;20041;-74
2023/09/30 09:53:01;;;;;;;;;;;22.30;99.90;;;;;;5188220;28;20224;-73
2023/09/30 09:55:41;;;;;;;9.15;3.90;;;22.10;99.90;;;;;;5156647;28;20379;-74
2023/09/30 09:58:15;;;;;;;11.52;4.18;;;22.20;99.90;;;;;;5153969;28;20049;-73
2023/09/30 10:00:46;;;;;;;10.53;4.90;;;22.30;99.90;;;;;;5154689;28;20029;-74
2023/09/30 10:03:18;;;;;;;8.10;4.72;;;22.30;99.90;;;;;;5155408;28;20045;-74
2023/09/30 10:10:00;;;;;;;8.40;3.88;;;22.30;99.90;;;;;;5156427;28;20620;-73
2023/09/30 10:12:39;;;;;;;10.98;4.32;;;22.70;99.90;;;;;;5150774;28;20038;-73
2023/09/30 10:15:25;;;;;;;8.30;3.80;;;22.60;99.90;;;;;;5169701;28;20034;-74
2023/09/30 10:18:09;;;;;;;7.88;3.70;;;23.20;99.90;;;;;;5153707;28;20069;-74
2023/09/30 10:20:44;;;;;;;10.55;4.05;;;23.70;99.90;;;;;;5171155;28;20052;-73
2023/09/30 10:23:27;;;;;;;9.85;4.32;;;23.80;99.90;;;;;;5187516;28;20329;-73
2023/09/30 10:26:24;;;;;;;8.43;3.90;;;23.40;99.90;;;;;;5154446;28;20030;-73
2023/09/30 10:29:17;;;;;;;9.68;4.35;;;22.70;99.90;;;;;;5154852;28;20239;-73
2023/09/30 10:31:50;;;;;;;6.03;3.45;;;22.30;99.90;;;;;;5141017;28;20042;-73
2023/09/30 10:34:26;;;;;;;8.13;3.90;;;22.50;99.90;;;;;;5185351;28;20038;-73
2023/09/30 10:37:21;;;;;;;11.60;4.30;;;22.60;99.90;;;;;;5187275;28;20030;-73
2023/09/30 10:40:03;;;;;;;9.80;3.97;;;23.40;99.90;;;;;;5167006;28;20045;-74
2023/09/30 10:42:55;;;;;;;11.60;4.15;;;24.20;99.90;;;;;;5170917;28;20053;-72
2023/09/30 10:45:45;;;;;;;9.40;4.10;;;24.80;99.90;;;;;;5146506;28;20242;-73
2023/09/30 10:48:26;;;;;;;10.63;3.50;;;25.30;99.90;;;;;;5146045;28;20042;-73
2023/09/30 10:51:02;;;;;;;8.48;4.13;;;24.70;99.90;;;;;;5170703;28;20234;-74
2023/09/30 10:53:36;;;;;;;6.63;3.47;;;25.00;99.90;;;;;;5154777;28;20229;-75
2023/09/30 10:56:08;;;;;;;7.55;3.70;;;25.20;99.90;;;;;;5154317;28;20038;-73
2023/09/30 10:58:52;;;;;;;8.45;3.78;;;25.90;99.90;;;;;;5155966;28;20065;-73
2023/09/30 11:01:33;;;;;;;10.20;3.70;;;25.80;99.90;;;;;;5150285;28;20026;-74
2023/09/30 11:04:08;;;;;;;9.43;3.72;;;25.40;99.90;;;;;;5145796;28;20050;-75
2023/09/30 11:06:45;;;;;;;10.18;3.58;;;25.50;99.90;;;;;;5173927;28;20046;-73
2023/09/30 11:09:22;;;;;;;8.85;3.40;;;25.80;99.90;;;;;;5151796;28;20042;-73
2023/09/30 11:11:53;;;;;;;8.18;3.58;;;26.60;99.90;;;;;;5154178;28;20107;-73
2023/09/30 11:14:33;;;;;;;8.95;3.72;;;26.70;99.90;;;;;;5186961;28;20327;-72
2023/09/30 11:17:06;;;;;;;10.93;4.35;;;25.80;99.90;;;;;;5168383;28;20044;-72
2023/09/30 11:19:48;;;;;;;11.33;4.30;;;25.30;99.90;;;;;;5169901;28;20049;-75
2023/09/30 11:22:23;;;;;;;9.10;3.78;;;24.80;99.90;;;;;;5130035;28;20046;-75
2023/09/30 11:24:56;;;;;;;13.38;4.22;;;24.40;99.90;;;;;;5169701;28;20068;-74
2023/09/30 11:27:31;;;;;;;11.63;4.95;;;24.30;99.90;;;;;;5154209;28;20244;-72
2023/09/30 11:30:08;;;;;;;9.68;3.72;;;24.00;99.90;;;;;;5154055;28;20057;-72
2023/09/30 11:32:43;;;;;;;11.43;4.55;;;23.70;99.90;;;;;;5170969;28;20366;-73
2023/09/30 11:35:28;;;;;;;11.95;3.90;;;23.40;99.90;;;;;;5171483;28;20040;-73
2023/09/30 11:38:02;;;;;;;13.00;4.53;;;23.80;99.90;;;;;;5181149;28;20365;-72
2023/09/30 11:40:37;;;;;;;;;;;23.70;99.90;;;;;;5141253;28;20049;-73
2023/09/30 11:43:16;;;;;;;13.20;4.70;;;24.60;99.90;;;;;;5151889;28;20226;-73
2023/09/30 11:45:50;;;;;;;7.88;4.18;;;25.30;99.90;;;;;;5183870;28;20038;-73
2023/09/30 11:48:26;;;;;;;9.45;4.60;;;26.00;99.90;;;;;;5155880;28;20026;-73
2023/09/30 11:51:05;;;;;;;8.27;4.03;;;25.70;1.00;;;;;;5187287;28;20118;-73
2023/09/30 11:53:39;;;;;;;11.57;4.65;;;25.70;99.90;;;;;;5153455;28;20041;-73
2023/09/30 11:56:14;;;;;;;12.05;4.30;;;25.70;1.00;;;;;;5163271;28;20042;-73
2023/09/30 11:58:48;;;;;;;10.57;4.32;;;25.10;1.00;;;;;;5145543;28;20062;-74
2023/09/30 12:01:30;;;;;;;9.98;4.60;;;24.60;1.00;;;;;;5149457;28;20512;-71
2023/09/30 12:04:04;;;;;;;10.02;4.13;;;24.10;1.00;;;;;;5153923;28;20373;-72
2023/09/30 12:06:38;;;;;;;8.98;4.10;;;23.70;99.90;;;;;;5143274;28;20042;-74
2023/09/30 12:09:13;;;;;;;12.27;4.03;;;23.60;99.90;;;;;;5187388;28;20486;-74
2023/09/30 12:11:47;;;;;;;12.80;5.25;;;23.70;99.90;;;;;;5169952;28;20212;-72
2023/09/30 12:14:21;;;;;;;8.55;4.32;;;23.70;99.90;;;;;;5157138;28;20203;-74
2023/09/30 12:16:52;;;;;;;9.80;4.78;;;23.40;99.90;;;;;;5139114;28;20420;-74
2023/09/30 12:19:24;;;;;;;12.48;5.15;;;23.30;99.90;;;;;;5137552;28;20622;-74
2023/09/30 12:22:01;;;;;;;10.85;4.07;;;23.20;99.90;;;;;;5162571;28;20030;-74
2023/09/30 12:24:35;;;;;;;16.15;6.05;;;23.20;99.90;;;;;;5130039;28;20057;-74
2023/09/30 12:27:09;;;;;;;11.13;4.72;;;23.20;99.90;;;;;;5134097;28;20038;-74
2023/09/30 12:29:48;;;;;;;18.10;5.57;;;23.10;99.90;;;;;;5146828;28;20034;-74
2023/09/30 12:32:23;;;;;;;11.77;4.40;;;23.00;99.90;;;;;;5144557;28;20041;-74
2023/09/30 12:34:54;;;;;;;12.25;4.65;;;23.30;99.90;;;;;;5139485;28;20042;-74
2023/09/30 12:37:35;;;;;;;12.20;4.68;;;23.40;99.90;;;;;;5166031;28;20026;-74
2023/09/30 12:40:07;;;;;;;11.23;5.63;;;23.40;99.90;;;;;;5133245;28;20262;-74
2023/09/30 12:42:47;;;;;;;14.88;5.30;;;23.20;99.90;;;;;;5142693;28;20295;-75
2023/09/30 12:45:26;;;;;;;15.60;5.85;;;23.20;99.90;;;;;;5114297;28;20417;-74
2023/09/30 12:47:58;;;;;;;9.60;4.47;;;23.10;99.90;;;;;;5136297;28;20026;-72
2023/09/30 12:50:30;;;;;;;10.43;4.90;;;22.90;99.90;;;;;;5148733;28;20032;-73
2023/09/30 12:53:02;;;;;;;15.15;4.80;;;22.70;99.90;;;;;;5121012;28;20319;-73
2023/09/30 12:55:36;;;;;;;13.77;5.13;;;22.60;99.90;;;;;;5151317;28;20323;-75
2023/09/30 12:58:08;;;;;;;9.35;4.85;;;22.70;99.90;;;;;;5128319;28;20068;-73
2023/09/30 13:00:43;;;;;;;12.63;5.00;;;22.70;99.90;;;;;;5145267;28;20381;-73
2023/09/30 13:03:15;;;;;;;10.68;5.07;;;22.60;99.90;;;;;;5147675;28;20030;-74
2023/09/30 13:05:50;;;;;;;11.00;4.68;;;22.70;99.90;;;;;;5106900;28;20331;-73
2023/09/30 13:08:26;;;;;;;10.77;5.22;;;23.00;99.90;;;;;;5131342;28;20042;-73
2023/09/30 13:11:02;;;;;;;13.23;5.30;;;23.00;99.90;;;;;;5124917;28;20038;-73
2023/09/30 13:13:33;;;;;;;12.88;5.18;;;23.00;99.90;;;;;;5128894;28;20245;-73
2023/09/30 13:16:12;;;;;;;14.32;5.07;;;23.00;99.90;;;;;;5143795;28;20029;-73
2023/09/30 13:18:44;;;;;;;12.93;5.30;;;23.00;99.90;;;;;;5156396;28;20069;-73
2023/09/30 13:21:15;;;;;;;15.68;5.57;;;23.20;99.90;;;;;;5157925;28;20032;-73
2023/09/30 13:23:47;;;;;;;10.18;4.38;;;23.40;99.90;;;;;;5155398;28;20447;-74
2023/09/30 13:26:19;;;;;;;13.40;4.80;;;23.10;99.90;;;;;;5168497;28;20056;-75
2023/09/30 13:28:51;;;;;;;12.65;5.35;;;23.10;99.90;;;;;;5158823;28;20212;-73
2023/09/30 13:31:22;;;;;;;13.20;4.95;;;23.20;99.90;;;;;;5151861;28;20254;-74
2023/09/30 13:33:59;;;;;;;16.23;7.38;;;23.10;99.90;;;;;;5188569;28;20221;-73
2023/09/30 13:36:32;;;;;;;13.95;5.00;;;22.90;99.90;;;;;;5157714;28;20315;-74